sensor_id;sensor_type;location;lat;lon;timestamp;noise_LAeq;noise_LA_min;noise_LA_max;noise_LA01;noise_LA95
73663;Laerm;61956;52.540;13.382;2023-02-28T00:11:06;40.58;37.63;49.23;;
73663;Laerm;61956;52.540;13.382;2023-02-28T00:13:39;39.90;36.80;47.15;;
73663;Laerm;61956;52.540;13.382;2023-02-28T00:16:33;40.13;37.48;46.26;;
73663;Laerm;61956;52.540;13.382;2023-02-28T00:19:33;42.90;36.55;57.08;;
73663;Laerm;61956;52.540;13.382;2023-02-28T00:22:37;40.67;37.17;50.88;;
73663;Laerm;61956;52.540;13.382;2023-02-28T00:25:27;40.77;37.53;57.28;;
73663;Laerm;61956;52.540;13.382;2023-02-28T00:32:17;42.50;36.78;57.23;;
73663;Laerm;61956;52.540;13.382;2023-02-28T00:37:44;40.09;36.53;49.23;;
73663;Laerm;61956;52.540;13.382;2023-02-28T00:40:41;39.71;36.73;43.28;;
73663;Laerm;61956;52.540;13.382;2023-02-28T00:43:35;39.14;36.37;41.54;;
73663;Laerm;61956;52.540;13.382;2023-02-28T00:46:25;39.93;36.96;43.32;;
73663;Laerm;61956;52.540;13.382;2023-02-28T00:49:46;40.90;37.26;49.99;;
73663;Laerm;61956;52.540;13.382;2023-02-28T00:52:35;40.73;37.04;56.01;;
73663;Laerm;61956;52.540;13.382;2023-02-28T00:55:25;40.51;36.87;50.42;;
73663;Laerm;61956;52.540;13.382;2023-02-28T00:58:25;40.00;36.63;48.63;;
73663;Laerm;61956;52.540;13.382;2023-02-28T01:01:17;39.84;36.86;49.38;;
73663;Laerm;61956;52.540;13.382;2023-02-28T01:04:00;39.71;36.73;47.60;;
73663;Laerm;61956;52.540;13.382;2023-02-28T01:36:40;40.71;36.89;51.77;;
73663;Laerm;61956;52.540;13.382;2023-02-28T01:39:46;40.72;37.00;56.34;;
73663;Laerm;61956;52.540;13.382;2023-02-28T01:43:24;40.99;36.57;57.06;;
73663;Laerm;61956;52.540;13.382;2023-02-28T01:47:14;41.94;37.48;52.81;;
73663;Laerm;61956;52.540;13.382;2023-02-28T01:50:43;39.73;37.14;42.60;;
73663;Laerm;61956;52.540;13.382;2023-02-28T02:11:03;41.20;36.14;65.15;;
73663;Laerm;61956;52.540;13.382;2023-02-28T02:18:35;40.05;37.01;57.56;;
73663;Laerm;61956;52.540;13.382;2023-02-28T02:26:08;40.17;36.89;54.38;;
73663;Laerm;61956;52.540;13.382;2023-02-28T02:43:35;39.44;36.30;48.22;;
73663;Laerm;61956;52.540;13.382;2023-02-28T02:47:32;42.39;37.34;58.77;;
73663;Laerm;61956;52.540;13.382;2023-02-28T02:50:58;40.88;37.13;50.90;;
73663;Laerm;61956;52.540;13.382;2023-02-28T02:54:15;40.29;36.79;50.95;;
73663;Laerm;61956;52.540;13.382;2023-02-28T02:57:35;40.25;37.37;48.55;;
73663;Laerm;61956;52.540;13.382;2023-02-28T03:27:07;40.39;37.00;50.06;;
73663;Laerm;61956;52.540;13.382;2023-02-28T03:30:46;40.94;37.60;49.78;;
73663;Laerm;61956;52.540;13.382;2023-02-28T03:37:10;41.64;37.50;47.52;;
73663;Laerm;61956;52.540;13.382;2023-02-28T03:40:55;42.49;37.97;48.14;;
73663;Laerm;61956;52.540;13.382;2023-02-28T03:44:21;47.48;38.04;64.47;;
73663;Laerm;61956;52.540;13.382;2023-02-28T03:55:41;49.49;38.87;67.83;;
73663;Laerm;61956;52.540;13.382;2023-02-28T03:59:07;53.08;38.90;71.23;;
73663;Laerm;61956;52.540;13.382;2023-02-28T04:02:28;56.12;39.39;71.51;;
73663;Laerm;61956;52.540;13.382;2023-02-28T04:05:55;55.05;38.32;72.83;;
73663;Laerm;61956;52.540;13.382;2023-02-28T04:09:23;57.68;39.30;75.95;;
73663;Laerm;61956;52.540;13.382;2023-02-28T04:16:12;57.29;39.56;75.92;;
73663;Laerm;61956;52.540;13.382;2023-02-28T04:22:59;50.83;38.41;67.50;;
73663;Laerm;61956;52.540;13.382;2023-02-28T04:27:26;50.83;38.41;67.50;;
73663;Laerm;61956;52.540;13.382;2023-02-28T04:30:20;53.92;39.69;69.12;;
73663;Laerm;61956;52.540;13.382;2023-02-28T04:33:23;52.59;40.21;68.42;;
73663;Laerm;61956;52.540;13.382;2023-02-28T04:36:15;52.70;40.21;66.62;;
73663;Laerm;61956;52.540;13.382;2023-02-28T04:38:55;52.93;40.21;68.05;;
73663;Laerm;61956;52.540;13.382;2023-02-28T04:41:50;52.73;40.14;67.55;;
73663;Laerm;61956;52.540;13.382;2023-02-28T04:44:49;55.35;39.98;71.75;;
73663;Laerm;61956;52.540;13.382;2023-02-28T04:47:52;54.20;40.63;71.67;;
73663;Laerm;61956;52.540;13.382;2023-02-28T06:41:43;52.74;45.79;67.29;;
73663;Laerm;61956;52.540;13.382;2023-02-28T06:47:41;53.60;45.34;65.54;;
73663;Laerm;61956;52.540;13.382;2023-02-28T06:51:03;53.83;45.64;66.80;;
73663;Laerm;61956;52.540;13.382;2023-02-28T06:57:13;53.82;44.97;68.49;;
73663;Laerm;61956;52.540;13.382;2023-02-28T07:00:34;55.44;44.48;67.40;;
73663;Laerm;61956;52.540;13.382;2023-02-28T07:03:27;53.04;44.96;68.26;;
73663;Laerm;61956;52.540;13.382;2023-02-28T07:06:29;53.90;44.82;66.17;;
73663;Laerm;61956;52.540;13.382;2023-02-28T07:09:30;53.12;44.43;67.41;;
73663;Laerm;61956;52.540;13.382;2023-02-28T07:24:18;48.67;43.92;59.43;;
73663;Laerm;61956;52.540;13.382;2023-02-28T07:27:45;48.23;42.94;54.98;;
73663;Laerm;61956;52.540;13.382;2023-02-28T07:30:47;48.28;42.10;56.82;;
73663;Laerm;61956;52.540;13.382;2023-02-28T07:33:56;46.85;41.45;69.86;;
73663;Laerm;61956;52.540;13.382;2023-02-28T07:36:53;48.61;44.16;66.05;;
73663;Laerm;61956;52.540;13.382;2023-02-28T07:43:08;53.50;44.53;72.09;;
73663;Laerm;61956;52.540;13.382;2023-02-28T07:45:51;48.41;42.92;58.52;;
73663;Laerm;61956;52.540;13.382;2023-02-28T07:48:48;51.54;42.50;70.45;;
73663;Laerm;61956;52.540;13.382;2023-02-28T07:51:30;48.79;42.35;56.43;;
73663;Laerm;61956;52.540;13.382;2023-02-28T07:54:15;48.45;41.98;61.20;;
73663;Laerm;61956;52.540;13.382;2023-02-28T07:56:59;48.98;43.53;58.97;;
73663;Laerm;61956;52.540;13.382;2023-02-28T07:59:49;49.11;42.76;58.99;;
73663;Laerm;61956;52.540;13.382;2023-02-28T08:02:19;48.72;43.40;60.87;;
73663;Laerm;61956;52.540;13.382;2023-02-28T08:05:04;51.21;43.06;66.90;;
73663;Laerm;61956;52.540;13.382;2023-02-28T08:07:49;50.38;42.61;57.49;;
73663;Laerm;61956;52.540;13.382;2023-02-28T08:10:21;50.81;42.27;73.22;;
73663;Laerm;61956;52.540;13.382;2023-02-28T08:13:03;48.64;42.16;61.46;;
73663;Laerm;61956;52.540;13.382;2023-02-28T08:15:40;49.73;42.62;61.65;;
73663;Laerm;61956;52.540;13.382;2023-02-28T08:18:12;52.14;42.48;64.44;;
73663;Laerm;61956;52.540;13.382;2023-02-28T08:20:44;51.05;43.07;64.84;;
73663;Laerm;61956;52.540;13.382;2023-02-28T08:23:15;53.46;44.52;66.91;;
73663;Laerm;61956;52.540;13.382;2023-02-28T08:26:00;51.98;42.33;62.70;;
73663;Laerm;61956;52.540;13.382;2023-02-28T08:28:33;51.85;43.97;61.07;;
73663;Laerm;61956;52.540;13.382;2023-02-28T08:31:39;52.24;41.78;64.07;;
73663;Laerm;61956;52.540;13.382;2023-02-28T08:34:28;50.47;42.70;63.38;;
73663;Laerm;61956;52.540;13.382;2023-02-28T08:37:13;51.22;42.76;64.04;;
73663;Laerm;61956;52.540;13.382;2023-02-28T08:39:51;51.42;44.08;64.55;;
73663;Laerm;61956;52.540;13.382;2023-02-28T08:42:36;52.56;41.46;70.83;;
73663;Laerm;61956;52.540;13.382;2023-02-28T08:45:11;47.54;41.07;65.61;;
73663;Laerm;61956;52.540;13.382;2023-02-28T08:48:40;51.86;41.49;61.93;;
73663;Laerm;61956;52.540;13.382;2023-02-28T08:51:16;51.94;42.13;66.43;;
73663;Laerm;61956;52.540;13.382;2023-02-28T08:54:00;53.94;43.26;65.88;;
73663;Laerm;61956;52.540;13.382;2023-02-28T08:56:33;52.55;41.72;71.45;;
73663;Laerm;61956;52.540;13.382;2023-02-28T08:59:05;51.76;43.21;63.26;;
73663;Laerm;61956;52.540;13.382;2023-02-28T09:01:41;52.12;42.51;67.74;;
73663;Laerm;61956;52.540;13.382;2023-02-28T09:04:28;51.09;42.24;64.07;;
73663;Laerm;61956;52.540;13.382;2023-02-28T09:07:05;53.31;41.94;68.47;;
73663;Laerm;61956;52.540;13.382;2023-02-28T09:09:51;52.78;42.51;70.79;;
73663;Laerm;61956;52.540;13.382;2023-02-28T09:12:46;51.98;42.69;63.81;;
73663;Laerm;61956;52.540;13.382;2023-02-28T09:15:26;49.87;41.42;64.19;;
73663;Laerm;61956;52.540;13.382;2023-02-28T09:18:58;47.66;41.81;64.26;;
73663;Laerm;61956;52.540;13.382;2023-02-28T09:21:46;49.45;41.57;59.83;;
73663;Laerm;61956;52.540;13.382;2023-02-28T09:27:16;52.11;43.03;63.70;;
73663;Laerm;61956;52.540;13.382;2023-02-28T09:32:56;50.84;42.27;67.95;;
73663;Laerm;61956;52.540;13.382;2023-02-28T09:35:26;50.26;41.49;67.97;;
73663;Laerm;61956;52.540;13.382;2023-02-28T09:37:59;45.98;40.11;54.32;;
73663;Laerm;61956;52.540;13.382;2023-02-28T09:40:29;46.71;40.36;59.94;;
73663;Laerm;61956;52.540;13.382;2023-02-28T09:43:00;47.28;41.46;58.14;;
73663;Laerm;61956;52.540;13.382;2023-02-28T09:45:35;47.14;40.09;59.28;;
73663;Laerm;61956;52.540;13.382;2023-02-28T09:48:12;51.66;41.74;64.91;;
73663;Laerm;61956;52.540;13.382;2023-02-28T09:50:49;51.70;43.05;67.94;;
73663;Laerm;61956;52.540;13.382;2023-02-28T09:53:28;57.35;41.89;72.94;;
73663;Laerm;61956;52.540;13.382;2023-02-28T09:56:04;51.08;41.29;68.81;;
73663;Laerm;61956;52.540;13.382;2023-02-28T09:58:41;46.83;41.40;53.55;;
73663;Laerm;61956;52.540;13.382;2023-02-28T10:01:24;46.20;41.53;56.21;;
73663;Laerm;61956;52.540;13.382;2023-02-28T10:04:00;47.31;42.88;54.11;;
73663;Laerm;61956;52.540;13.382;2023-02-28T10:06:39;48.61;41.35;63.09;;
73663;Laerm;61956;52.540;13.382;2023-02-28T10:09:18;48.79;42.13;60.73;;
73663;Laerm;61956;52.540;13.382;2023-02-28T10:11:52;47.57;42.86;62.14;;
73663;Laerm;61956;52.540;13.382;2023-02-28T10:14:26;54.56;40.84;73.67;;
73663;Laerm;61956;52.540;13.382;2023-02-28T10:17:02;48.71;42.58;62.96;;
73663;Laerm;61956;52.540;13.382;2023-02-28T10:19:42;51.25;42.44;63.33;;
73663;Laerm;61956;52.540;13.382;2023-02-28T10:22:19;48.42;41.32;61.86;;
73663;Laerm;61956;52.540;13.382;2023-02-28T10:24:55;50.70;41.88;63.01;;
73663;Laerm;61956;52.540;13.382;2023-02-28T10:27:31;50.60;41.57;62.71;;
73663;Laerm;61956;52.540;13.382;2023-02-28T10:30:02;51.63;41.28;65.37;;
73663;Laerm;61956;52.540;13.382;2023-02-28T10:32:35;50.62;42.52;64.84;;
73663;Laerm;61956;52.540;13.382;2023-02-28T10:35:15;51.55;43.06;63.05;;
73663;Laerm;61956;52.540;13.382;2023-02-28T10:37:50;51.05;41.95;62.94;;
73663;Laerm;61956;52.540;13.382;2023-02-28T10:40:34;46.25;41.26;55.84;;
73663;Laerm;61956;52.540;13.382;2023-02-28T10:43:18;46.75;41.45;55.53;;
73663;Laerm;61956;52.540;13.382;2023-02-28T10:46:02;48.77;41.10;65.33;;
73663;Laerm;61956;52.540;13.382;2023-02-28T10:48:36;47.00;41.52;57.95;;
73663;Laerm;61956;52.540;13.382;2023-02-28T10:51:11;48.55;41.06;64.96;;
73663;Laerm;61956;52.540;13.382;2023-02-28T10:53:51;50.07;41.80;65.87;;
73663;Laerm;61956;52.540;13.382;2023-02-28T10:56:25;50.57;41.97;65.98;;
73663;Laerm;61956;52.540;13.382;2023-02-28T10:59:03;47.69;41.07;59.87;;
73663;Laerm;61956;52.540;13.382;2023-02-28T11:01:44;46.22;40.47;53.16;;
73663;Laerm;61956;52.540;13.382;2023-02-28T11:14:47;46.76;42.47;55.74;;
73663;Laerm;61956;52.540;13.382;2023-02-28T11:17:27;46.31;41.26;56.20;;
73663;Laerm;61956;52.540;13.382;2023-02-28T11:20:01;46.11;41.33;57.53;;
73663;Laerm;61956;52.540;13.382;2023-02-28T11:22:39;46.35;41.03;55.92;;
73663;Laerm;61956;52.540;13.382;2023-02-28T11:25:21;46.45;41.19;54.49;;
73663;Laerm;61956;52.540;13.382;2023-02-28T11:28:26;46.80;41.80;56.38;;
73663;Laerm;61956;52.540;13.382;2023-02-28T11:31:15;46.38;41.05;57.70;;
73663;Laerm;61956;52.540;13.382;2023-02-28T11:33:48;45.62;40.71;53.26;;
73663;Laerm;61956;52.540;13.382;2023-02-28T11:36:21;46.35;40.38;55.80;;
73663;Laerm;61956;52.540;13.382;2023-02-28T11:38:54;48.35;41.44;64.80;;
73663;Laerm;61956;52.540;13.382;2023-02-28T11:41:39;49.61;41.59;61.54;;
73663;Laerm;61956;52.540;13.382;2023-02-28T11:44:44;48.51;42.42;63.29;;
73663;Laerm;61956;52.540;13.382;2023-02-28T11:47:30;47.84;42.02;60.04;;
73663;Laerm;61956;52.540;13.382;2023-02-28T11:50:19;51.11;42.43;64.04;;
73663;Laerm;61956;52.540;13.382;2023-02-28T11:52:54;52.19;43.53;64.94;;
73663;Laerm;61956;52.540;13.382;2023-02-28T11:55:36;49.52;41.87;62.06;;
73663;Laerm;61956;52.540;13.382;2023-02-28T11:58:28;51.10;41.40;62.31;;
73663;Laerm;61956;52.540;13.382;2023-02-28T12:01:24;50.77;42.80;63.35;;
73663;Laerm;61956;52.540;13.382;2023-02-28T12:04:21;51.78;43.73;69.26;;
73663;Laerm;61956;52.540;13.382;2023-02-28T12:07:02;52.14;43.56;63.19;;
73663;Laerm;61956;52.540;13.382;2023-02-28T12:09:56;50.40;43.91;63.48;;
73663;Laerm;61956;52.540;13.382;2023-02-28T12:12:45;51.36;42.76;67.15;;
73663;Laerm;61956;52.540;13.382;2023-02-28T12:18:56;50.97;43.70;65.07;;
73663;Laerm;61956;52.540;13.382;2023-02-28T12:21:51;50.88;43.29;70.11;;
73663;Laerm;61956;52.540;13.382;2023-02-28T12:24:46;51.58;42.06;69.93;;
73663;Laerm;61956;52.540;13.382;2023-02-28T12:27:28;46.46;41.78;57.75;;
73663;Laerm;61956;52.540;13.382;2023-02-28T12:30:09;46.58;41.97;63.30;;
73663;Laerm;61956;52.540;13.382;2023-02-28T12:32:48;48.74;42.88;59.52;;
73663;Laerm;61956;52.540;13.382;2023-02-28T12:35:25;52.70;42.69;69.41;;
73663;Laerm;61956;52.540;13.382;2023-02-28T12:38:04;51.11;43.58;59.59;;
73663;Laerm;61956;52.540;13.382;2023-02-28T12:40:45;54.19;42.26;69.48;;
73663;Laerm;61956;52.540;13.382;2023-02-28T12:43:18;49.85;42.87;58.75;;
73663;Laerm;61956;52.540;13.382;2023-02-28T12:45:53;50.05;41.41;67.22;;
73663;Laerm;61956;52.540;13.382;2023-02-28T12:48:31;48.35;41.54;60.16;;
73663;Laerm;61956;52.540;13.382;2023-02-28T12:51:04;50.85;42.69;64.00;;
73663;Laerm;61956;52.540;13.382;2023-02-28T12:53:52;52.36;43.43;65.75;;
73663;Laerm;61956;52.540;13.382;2023-02-28T12:56:36;46.56;40.63;55.85;;
73663;Laerm;61956;52.540;13.382;2023-02-28T12:59:20;47.32;40.95;59.64;;
73663;Laerm;61956;52.540;13.382;2023-02-28T13:05:10;46.83;41.27;56.75;;
73663;Laerm;61956;52.540;13.382;2023-02-28T13:08:16;46.96;41.34;55.64;;
73663;Laerm;61956;52.540;13.382;2023-02-28T13:10:54;47.98;41.45;59.31;;
73663;Laerm;61956;52.540;13.382;2023-02-28T13:13:26;47.29;41.67;54.80;;
73663;Laerm;61956;52.540;13.382;2023-02-28T13:16:00;47.85;41.49;58.29;;
73663;Laerm;61956;52.540;13.382;2023-02-28T13:18:34;48.84;42.26;65.52;;
73663;Laerm;61956;52.540;13.382;2023-02-28T13:21:08;45.65;40.75;53.42;;
73663;Laerm;61956;52.540;13.382;2023-02-28T13:24:02;48.49;40.71;60.52;;
73663;Laerm;61956;52.540;13.382;2023-02-28T13:27:20;49.51;42.98;59.70;;
73663;Laerm;61956;52.540;13.382;2023-02-28T13:29:52;50.60;44.16;63.28;;
73663;Laerm;61956;52.540;13.382;2023-02-28T13:32:42;50.70;44.57;61.46;;
73663;Laerm;61956;52.540;13.382;2023-02-28T13:38:32;50.53;43.50;66.34;;
73663;Laerm;61956;52.540;13.382;2023-02-28T13:41:46;48.99;42.78;59.17;;
73663;Laerm;61956;52.540;13.382;2023-02-28T13:44:20;48.75;42.42;61.82;;
73663;Laerm;61956;52.540;13.382;2023-02-28T13:47:34;52.68;42.42;71.29;;
73663;Laerm;61956;52.540;13.382;2023-02-28T13:50:23;51.34;44.14;62.62;;
73663;Laerm;61956;52.540;13.382;2023-02-28T13:56:29;52.50;42.39;68.30;;
73663;Laerm;61956;52.540;13.382;2023-02-28T13:59:19;51.41;42.42;72.46;;
73663;Laerm;61956;52.540;13.382;2023-02-28T14:02:11;51.08;43.00;61.96;;
73663;Laerm;61956;52.540;13.382;2023-02-28T14:05:00;55.13;42.63;71.34;;
73663;Laerm;61956;52.540;13.382;2023-02-28T14:07:44;50.35;43.16;62.59;;
73663;Laerm;61956;52.540;13.382;2023-02-28T14:10:29;51.82;43.40;68.83;;
73663;Laerm;61956;52.540;13.382;2023-02-28T14:13:13;48.91;43.80;58.25;;
73663;Laerm;61956;52.540;13.382;2023-02-28T14:15:57;49.55;44.21;59.66;;
73663;Laerm;61956;52.540;13.382;2023-02-28T14:18:31;52.35;44.03;68.23;;
73663;Laerm;61956;52.540;13.382;2023-02-28T14:21:14;50.58;43.07;65.66;;
73663;Laerm;61956;52.540;13.382;2023-02-28T14:24:21;51.07;43.27;63.38;;
73663;Laerm;61956;52.540;13.382;2023-02-28T14:27:09;50.70;43.48;61.54;;
73663;Laerm;61956;52.540;13.382;2023-02-28T14:30:41;51.15;44.04;61.12;;
73663;Laerm;61956;52.540;13.382;2023-02-28T14:33:27;51.70;42.71;69.33;;
73663;Laerm;61956;52.540;13.382;2023-02-28T14:36:17;48.47;43.70;62.03;;
73663;Laerm;61956;52.540;13.382;2023-02-28T14:38:52;53.68;43.95;68.38;;
73663;Laerm;61956;52.540;13.382;2023-02-28T14:41:28;52.25;44.58;66.28;;
73663;Laerm;61956;52.540;13.382;2023-02-28T14:44:00;52.22;43.48;69.77;;
73663;Laerm;61956;52.540;13.382;2023-02-28T14:46:38;52.86;42.79;68.80;;
73663;Laerm;61956;52.540;13.382;2023-02-28T14:49:18;49.74;42.45;70.79;;
73663;Laerm;61956;52.540;13.382;2023-02-28T14:51:50;49.14;43.68;60.39;;
73663;Laerm;61956;52.540;13.382;2023-02-28T14:54:30;49.21;42.00;58.38;;
73663;Laerm;61956;52.540;13.382;2023-02-28T14:56:59;47.77;42.24;57.19;;
73663;Laerm;61956;52.540;13.382;2023-02-28T14:59:31;49.22;42.72;64.70;;
73663;Laerm;61956;52.540;13.382;2023-02-28T15:02:19;51.26;43.43;70.42;;
73663;Laerm;61956;52.540;13.382;2023-02-28T15:04:56;49.13;43.74;58.71;;
73663;Laerm;61956;52.540;13.382;2023-02-28T15:07:26;53.31;43.73;64.71;;
73663;Laerm;61956;52.540;13.382;2023-02-28T15:10:13;52.56;41.01;64.81;;
73663;Laerm;61956;52.540;13.382;2023-02-28T15:12:52;54.34;43.91;72.60;;
73663;Laerm;61956;52.540;13.382;2023-02-28T15:15:30;53.53;44.27;64.38;;
73663;Laerm;61956;52.540;13.382;2023-02-28T15:18:07;54.03;45.12;64.99;;
73663;Laerm;61956;52.540;13.382;2023-02-28T15:20:46;47.79;42.33;59.43;;
73663;Laerm;61956;52.540;13.382;2023-02-28T15:23:16;48.51;42.77;54.77;;
73663;Laerm;61956;52.540;13.382;2023-02-28T15:25:46;47.06;41.84;54.83;;
73663;Laerm;61956;52.540;13.382;2023-02-28T15:28:20;48.78;43.44;67.26;;
73663;Laerm;61956;52.540;13.382;2023-02-28T15:30:58;47.45;41.85;57.99;;
73663;Laerm;61956;52.540;13.382;2023-02-28T15:33:30;55.58;42.91;74.16;;
73663;Laerm;61956;52.540;13.382;2023-02-28T15:36:15;46.99;41.58;55.53;;
73663;Laerm;61956;52.540;13.382;2023-02-28T15:38:51;47.25;41.44;64.05;;
73663;Laerm;61956;52.540;13.382;2023-02-28T15:41:29;47.12;42.03;58.20;;
73663;Laerm;61956;52.540;13.382;2023-02-28T15:44:15;46.64;41.07;53.97;;
73663;Laerm;61956;52.540;13.382;2023-02-28T15:46:56;46.51;41.13;56.48;;
73663;Laerm;61956;52.540;13.382;2023-02-28T15:49:29;46.31;41.84;56.44;;
73663;Laerm;61956;52.540;13.382;2023-02-28T15:52:04;46.43;41.08;61.65;;
73663;Laerm;61956;52.540;13.382;2023-02-28T15:54:34;46.52;42.01;54.64;;
73663;Laerm;61956;52.540;13.382;2023-02-28T15:57:13;47.11;42.10;59.31;;
73663;Laerm;61956;52.540;13.382;2023-02-28T15:59:51;47.17;41.78;54.40;;
73663;Laerm;61956;52.540;13.382;2023-02-28T16:02:30;48.00;41.68;57.44;;
73663;Laerm;61956;52.540;13.382;2023-02-28T16:05:29;48.02;41.94;61.26;;
73663;Laerm;61956;52.540;13.382;2023-02-28T16:08:14;46.00;40.81;56.24;;
73663;Laerm;61956;52.540;13.382;2023-02-28T16:10:44;47.03;41.72;56.61;;
73663;Laerm;61956;52.540;13.382;2023-02-28T16:13:14;46.45;41.00;56.19;;
73663;Laerm;61956;52.540;13.382;2023-02-28T16:15:44;47.11;41.53;58.11;;
73663;Laerm;61956;52.540;13.382;2023-02-28T16:18:15;47.78;41.04;60.22;;
73663;Laerm;61956;52.540;13.382;2023-02-28T16:20:44;47.24;41.71;59.07;;
73663;Laerm;61956;52.540;13.382;2023-02-28T16:23:16;46.59;40.77;55.71;;
73663;Laerm;61956;52.540;13.382;2023-02-28T16:25:45;46.70;41.02;61.06;;
73663;Laerm;61956;52.540;13.382;2023-02-28T16:28:20;47.15;40.82;65.07;;
73663;Laerm;61956;52.540;13.382;2023-02-28T16:30:52;49.79;42.03;68.14;;
73663;Laerm;61956;52.540;13.382;2023-02-28T16:33:22;46.29;40.71;57.72;;
73663;Laerm;61956;52.540;13.382;2023-02-28T16:35:52;47.35;42.90;55.02;;
73663;Laerm;61956;52.540;13.382;2023-02-28T16:38:24;47.85;43.22;57.87;;
73663;Laerm;61956;52.540;13.382;2023-02-28T16:40:58;47.95;42.96;57.57;;
73663;Laerm;61956;52.540;13.382;2023-02-28T16:43:28;46.05;40.45;53.90;;
73663;Laerm;61956;52.540;13.382;2023-02-28T16:45:59;47.07;41.66;55.44;;
73663;Laerm;61956;52.540;13.382;2023-02-28T16:48:29;47.26;40.84;57.75;;
73663;Laerm;61956;52.540;13.382;2023-02-28T16:50:59;46.72;41.59;59.45;;
73663;Laerm;61956;52.540;13.382;2023-02-28T16:53:34;45.67;39.53;59.81;;
73663;Laerm;61956;52.540;13.382;2023-02-28T16:56:05;45.77;40.85;55.57;;
73663;Laerm;61956;52.540;13.382;2023-02-28T16:58:36;45.33;40.12;58.96;;
73663;Laerm;61956;52.540;13.382;2023-02-28T17:01:05;46.47;40.45;57.04;;
73663;Laerm;61956;52.540;13.382;2023-02-28T17:03:34;46.18;41.15;56.29;;
73663;Laerm;61956;52.540;13.382;2023-02-28T17:06:17;46.30;40.42;56.96;;
73663;Laerm;61956;52.540;13.382;2023-02-28T17:08:51;45.83;40.37;54.50;;
73663;Laerm;61956;52.540;13.382;2023-02-28T17:11:21;46.22;41.06;58.24;;
73663;Laerm;61956;52.540;13.382;2023-02-28T17:13:50;45.69;40.68;54.34;;
73663;Laerm;61956;52.540;13.382;2023-02-28T17:16:26;46.99;41.00;59.09;;
73663;Laerm;61956;52.540;13.382;2023-02-28T17:18:59;51.71;41.34;77.75;;
73663;Laerm;61956;52.540;13.382;2023-02-28T17:24:02;44.91;40.22;54.31;;
73663;Laerm;61956;52.540;13.382;2023-02-28T17:26:35;45.62;40.25;53.83;;
73663;Laerm;61956;52.540;13.382;2023-02-28T17:29:13;46.55;41.79;54.45;;
73663;Laerm;61956;52.540;13.382;2023-02-28T17:31:43;47.29;41.67;56.19;;
73663;Laerm;61956;52.540;13.382;2023-02-28T17:34:13;44.87;40.50;52.39;;
73663;Laerm;61956;52.540;13.382;2023-02-28T17:36:45;45.55;39.66;53.97;;
73663;Laerm;61956;52.540;13.382;2023-02-28T17:39:19;45.78;40.91;55.71;;
73663;Laerm;61956;52.540;13.382;2023-02-28T17:41:50;45.70;41.28;54.59;;
73663;Laerm;61956;52.540;13.382;2023-02-28T17:44:20;46.48;40.45;55.56;;
73663;Laerm;61956;52.540;13.382;2023-02-28T17:46:52;45.40;41.02;53.64;;
73663;Laerm;61956;52.540;13.382;2023-02-28T17:49:22;44.57;40.77;55.02;;
73663;Laerm;61956;52.540;13.382;2023-02-28T17:51:52;45.73;40.68;64.24;;
73663;Laerm;61956;52.540;13.382;2023-02-28T17:54:24;45.63;40.33;56.61;;
73663;Laerm;61956;52.540;13.382;2023-02-28T17:56:53;46.47;41.36;56.89;;
73663;Laerm;61956;52.540;13.382;2023-02-28T17:59:22;45.79;40.83;54.19;;
73663;Laerm;61956;52.540;13.382;2023-02-28T18:01:51;45.90;40.41;55.37;;
73663;Laerm;61956;52.540;13.382;2023-02-28T18:04:20;45.53;39.93;58.30;;
73663;Laerm;61956;52.540;13.382;2023-02-28T18:06:50;46.51;40.83;56.46;;
73663;Laerm;61956;52.540;13.382;2023-02-28T18:09:23;46.24;39.99;56.64;;
73663;Laerm;61956;52.540;13.382;2023-02-28T18:11:54;44.49;40.31;53.07;;
73663;Laerm;61956;52.540;13.382;2023-02-28T18:14:25;45.84;40.47;54.92;;
73663;Laerm;61956;52.540;13.382;2023-02-28T18:16:55;45.73;40.48;53.41;;
73663;Laerm;61956;52.540;13.382;2023-02-28T18:19:25;45.64;39.86;57.02;;
73663;Laerm;61956;52.540;13.382;2023-02-28T18:21:54;45.99;40.85;59.70;;
73663;Laerm;61956;52.540;13.382;2023-02-28T18:24:26;45.61;41.25;54.50;;
73663;Laerm;61956;52.540;13.382;2023-02-28T18:26:55;46.77;41.60;54.06;;
73663;Laerm;61956;52.540;13.382;2023-02-28T18:29:27;46.17;41.54;53.70;;
73663;Laerm;61956;52.540;13.382;2023-02-28T18:31:57;45.51;40.75;54.72;;
73663;Laerm;61956;52.540;13.382;2023-02-28T18:34:27;45.34;40.34;59.46;;
73663;Laerm;61956;52.540;13.382;2023-02-28T18:36:56;45.11;40.16;58.49;;
73663;Laerm;61956;52.540;13.382;2023-02-28T18:39:29;45.36;40.36;54.30;;
73663;Laerm;61956;52.540;13.382;2023-02-28T18:41:59;44.95;40.31;59.91;;
73663;Laerm;61956;52.540;13.382;2023-02-28T18:44:28;45.44;39.94;56.97;;
73663;Laerm;61956;52.540;13.382;2023-02-28T18:46:57;45.09;40.76;54.12;;
73663;Laerm;61956;52.540;13.382;2023-02-28T18:49:26;46.32;41.07;56.20;;
73663;Laerm;61956;52.540;13.382;2023-02-28T18:51:56;46.26;41.04;56.90;;
73663;Laerm;61956;52.540;13.382;2023-02-28T18:54:28;46.99;40.27;55.81;;
73663;Laerm;61956;52.540;13.382;2023-02-28T18:57:03;46.39;41.60;54.86;;
73663;Laerm;61956;52.540;13.382;2023-02-28T18:59:33;45.19;40.82;53.95;;
73663;Laerm;61956;52.540;13.382;2023-02-28T19:02:02;46.00;41.04;56.80;;
73663;Laerm;61956;52.540;13.382;2023-02-28T19:04:31;45.46;40.64;57.11;;
73663;Laerm;61956;52.540;13.382;2023-02-28T19:07:00;45.39;40.33;58.93;;
73663;Laerm;61956;52.540;13.382;2023-02-28T19:09:33;46.07;40.67;56.77;;
73663;Laerm;61956;52.540;13.382;2023-02-28T19:12:03;45.69;39.66;58.48;;
73663;Laerm;61956;52.540;13.382;2023-02-28T19:14:32;44.32;39.14;64.82;;
73663;Laerm;61956;52.540;13.382;2023-02-28T19:17:02;45.04;39.63;56.54;;
73663;Laerm;61956;52.540;13.382;2023-02-28T19:19:31;44.37;40.44;55.11;;
73663;Laerm;61956;52.540;13.382;2023-02-28T19:22:01;44.78;39.98;52.85;;
73663;Laerm;61956;52.540;13.382;2023-02-28T19:24:33;45.27;40.07;55.15;;
73663;Laerm;61956;52.540;13.382;2023-02-28T19:27:02;45.54;40.82;64.06;;
73663;Laerm;61956;52.540;13.382;2023-02-28T19:29:32;47.62;40.97;58.77;;
73663;Laerm;61956;52.540;13.382;2023-02-28T19:34:30;46.70;40.55;55.82;;
73663;Laerm;61956;52.540;13.382;2023-02-28T19:37:00;46.30;41.17;54.60;;
73663;Laerm;61956;52.540;13.382;2023-02-28T19:39:29;45.65;39.65;54.96;;
73663;Laerm;61956;52.540;13.382;2023-02-28T19:42:10;46.57;41.48;55.07;;
73663;Laerm;61956;52.540;13.382;2023-02-28T19:44:40;46.24;41.18;64.65;;
73663;Laerm;61956;52.540;13.382;2023-02-28T19:47:13;45.90;40.97;54.81;;
73663;Laerm;61956;52.540;13.382;2023-02-28T19:49:42;46.01;40.57;56.78;;
73663;Laerm;61956;52.540;13.382;2023-02-28T19:52:11;46.61;41.71;59.96;;
73663;Laerm;61956;52.540;13.382;2023-02-28T19:54:41;46.24;41.88;60.02;;
73663;Laerm;61956;52.540;13.382;2023-02-28T19:57:13;43.93;40.25;52.05;;
73663;Laerm;61956;52.540;13.382;2023-02-28T19:59:42;46.00;41.02;54.19;;
73663;Laerm;61956;52.540;13.382;2023-02-28T20:02:15;47.70;41.93;56.79;;